sensor_id;sensor_type;location;lat;lon;timestamp;temperature;humidity
7427;DHT22;3755;59.316;18.092;2024-01-07T00:02:19;-11.10;99.90
7427;DHT22;3755;59.316;18.092;2024-01-07T00:05:05;-10.40;99.90
7427;DHT22;3755;59.316;18.092;2024-01-07T00:07:46;-11.10;99.90
7427;DHT22;3755;59.316;18.092;2024-01-07T00:10:29;-11.10;99.90
7427;DHT22;3755;59.316;18.092;2024-01-07T00:13:01;-10.20;99.90
7427;DHT22;3755;59.316;18.092;2024-01-07T00:15:31;-10.90;99.90
7427;DHT22;3755;59.316;18.092;2024-01-07T00:18:07;-10.00;99.90
7427;DHT22;3755;59.316;18.092;2024-01-07T00:20:48;-11.10;99.90
7427;DHT22;3755;59.316;18.092;2024-01-07T00:23:15;-11.00;99.90
7427;DHT22;3755;59.316;18.092;2024-01-07T00:25:43;-10.50;99.90
7427;DHT22;3755;59.316;18.092;2024-01-07T00:28:18;-11.00;99.90
7427;DHT22;3755;59.316;18.092;2024-01-07T00:30:49;-10.70;99.90
7427;DHT22;3755;59.316;18.092;2024-01-07T00:33:18;-11.00;99.90
7427;DHT22;3755;59.316;18.092;2024-01-07T00:36:01;-11.00;99.90
7427;DHT22;3755;59.316;18.092;2024-01-07T00:38:28;-10.90;99.90
7427;DHT22;3755;59.316;18.092;2024-01-07T00:40:56;-10.90;99.90
7427;DHT22;3755;59.316;18.092;2024-01-07T00:43:37;-10.90;99.90
7427;DHT22;3755;59.316;18.092;2024-01-07T00:46:05;-10.90;99.90
7427;DHT22;3755;59.316;18.092;2024-01-07T00:48:38;-11.00;99.90
7427;DHT22;3755;59.316;18.092;2024-01-07T00:51:20;-11.00;99.90
7427;DHT22;3755;59.316;18.092;2024-01-07T00:54:01;-11.10;99.90
7427;DHT22;3755;59.316;18.092;2024-01-07T00:56:42;-11.10;99.90
7427;DHT22;3755;59.316;18.092;2024-01-07T00:59:14;-11.10;99.90
7427;DHT22;3755;59.316;18.092;2024-01-07T01:01:55;-11.00;99.90
7427;DHT22;3755;59.316;18.092;2024-01-07T01:07:40;-11.10;99.90
7427;DHT22;3755;59.316;18.092;2024-01-07T01:10:08;-11.00;99.90
7427;DHT22;3755;59.316;18.092;2024-01-07T01:12:36;-11.00;99.90
7427;DHT22;3755;59.316;18.092;2024-01-07T01:15:04;-10.90;99.90
7427;DHT22;3755;59.316;18.092;2024-01-07T01:17:31;-10.80;99.90
7427;DHT22;3755;59.316;18.092;2024-01-07T01:19:58;-10.80;99.90
7427;DHT22;3755;59.316;18.092;2024-01-07T01:22:28;-10.80;99.90
7427;DHT22;3755;59.316;18.092;2024-01-07T01:25:05;-10.60;99.90
7427;DHT22;3755;59.316;18.092;2024-01-07T01:27:41;-10.60;99.90
7427;DHT22;3755;59.316;18.092;2024-01-07T01:30:11;-10.60;99.90
7427;DHT22;3755;59.316;18.092;2024-01-07T01:32:39;-10.60;99.90
7427;DHT22;3755;59.316;18.092;2024-01-07T01:35:10;-10.30;99.90
7427;DHT22;3755;59.316;18.092;2024-01-07T01:37:37;-10.40;99.90
7427;DHT22;3755;59.316;18.092;2024-01-07T01:40:11;-10.40;99.90
7427;DHT22;3755;59.316;18.092;2024-01-07T01:42:44;-10.90;99.90
7427;DHT22;3755;59.316;18.092;2024-01-07T01:45:13;-10.60;99.90
7427;DHT22;3755;59.316;18.092;2024-01-07T01:47:41;-10.30;99.90
7427;DHT22;3755;59.316;18.092;2024-01-07T01:50:22;-10.30;99.90
7427;DHT22;3755;59.316;18.092;2024-01-07T01:52:54;-9.60;99.90
7427;DHT22;3755;59.316;18.092;2024-01-07T01:55:26;-10.20;99.90
7427;DHT22;3755;59.316;18.092;2024-01-07T01:57:54;-9.70;99.90
7427;DHT22;3755;59.316;18.092;2024-01-07T02:00:29;-9.40;99.90
7427;DHT22;3755;59.316;18.092;2024-01-07T02:02:57;-10.30;99.90
7427;DHT22;3755;59.316;18.092;2024-01-07T02:05:26;-10.30;99.90
7427;DHT22;3755;59.316;18.092;2024-01-07T02:07:55;-10.20;99.90
7427;DHT22;3755;59.316;18.092;2024-01-07T02:10:25;-10.20;99.90
7427;DHT22;3755;59.316;18.092;2024-01-07T02:12:55;-10.10;99.90
7427;DHT22;3755;59.316;18.092;2024-01-07T02:15:26;-10.10;99.90
7427;DHT22;3755;59.316;18.092;2024-01-07T02:17:56;-10.10;99.90
7427;DHT22;3755;59.316;18.092;2024-01-07T02:20:24;-10.20;99.90
7427;DHT22;3755;59.316;18.092;2024-01-07T02:22:51;-10.30;99.90
7427;DHT22;3755;59.316;18.092;2024-01-07T02:25:20;-10.20;99.90
7427;DHT22;3755;59.316;18.092;2024-01-07T02:27:48;-10.20;99.90
7427;DHT22;3755;59.316;18.092;2024-01-07T02:30:16;-10.00;99.90
7427;DHT22;3755;59.316;18.092;2024-01-07T02:32:43;-10.10;99.90
7427;DHT22;3755;59.316;18.092;2024-01-07T02:35:11;-10.00;99.90
7427;DHT22;3755;59.316;18.092;2024-01-07T02:37:38;-10.00;99.90
7427;DHT22;3755;59.316;18.092;2024-01-07T02:40:07;-10.00;99.90
7427;DHT22;3755;59.316;18.092;2024-01-07T02:42:36;-10.00;99.90
7427;DHT22;3755;59.316;18.092;2024-01-07T02:45:04;-10.00;99.90
7427;DHT22;3755;59.316;18.092;2024-01-07T02:47:41;-10.00;99.90
7427;DHT22;3755;59.316;18.092;2024-01-07T02:50:09;-9.90;99.90
7427;DHT22;3755;59.316;18.092;2024-01-07T02:52:36;-9.80;99.90
7427;DHT22;3755;59.316;18.092;2024-01-07T02:55:04;-9.70;99.90
7427;DHT22;3755;59.316;18.092;2024-01-07T02:57:32;-9.80;99.90
7427;DHT22;3755;59.316;18.092;2024-01-07T03:00:00;-9.90;99.90
7427;DHT22;3755;59.316;18.092;2024-01-07T03:02:28;-10.10;99.90
7427;DHT22;3755;59.316;18.092;2024-01-07T03:04:55;-10.10;99.90
7427;DHT22;3755;59.316;18.092;2024-01-07T03:07:23;-10.00;99.90
7427;DHT22;3755;59.316;18.092;2024-01-07T03:09:52;-10.00;99.90
7427;DHT22;3755;59.316;18.092;2024-01-07T03:12:19;-10.00;99.90
7427;DHT22;3755;59.316;18.092;2024-01-07T03:14:47;-10.00;99.90
7427;DHT22;3755;59.316;18.092;2024-01-07T03:17:16;-10.00;99.90
7427;DHT22;3755;59.316;18.092;2024-01-07T03:19:45;-10.00;99.90
7427;DHT22;3755;59.316;18.092;2024-01-07T03:22:12;-10.00;99.90
7427;DHT22;3755;59.316;18.092;2024-01-07T03:24:41;-9.90;99.90
7427;DHT22;3755;59.316;18.092;2024-01-07T03:27:09;-9.90;99.90
7427;DHT22;3755;59.316;18.092;2024-01-07T03:29:37;-9.80;99.90
7427;DHT22;3755;59.316;18.092;2024-01-07T03:32:05;-9.90;99.90
7427;DHT22;3755;59.316;18.092;2024-01-07T03:34:33;-9.90;99.90
7427;DHT22;3755;59.316;18.092;2024-01-07T03:37:04;-9.80;99.90
7427;DHT22;3755;59.316;18.092;2024-01-07T03:39:32;-9.70;99.90
7427;DHT22;3755;59.316;18.092;2024-01-07T03:41:59;-9.70;99.90
7427;DHT22;3755;59.316;18.092;2024-01-07T03:44:26;-9.70;99.90
7427;DHT22;3755;59.316;18.092;2024-01-07T03:46:53;-9.80;99.90
7427;DHT22;3755;59.316;18.092;2024-01-07T03:49:21;-9.80;99.90
7427;DHT22;3755;59.316;18.092;2024-01-07T03:51:50;-9.60;99.90
7427;DHT22;3755;59.316;18.092;2024-01-07T03:54:17;-10.00;99.90
7427;DHT22;3755;59.316;18.092;2024-01-07T03:56:44;-10.00;99.90
7427;DHT22;3755;59.316;18.092;2024-01-07T03:59:11;-10.00;99.90
7427;DHT22;3755;59.316;18.092;2024-01-07T04:01:39;-10.10;99.90
7427;DHT22;3755;59.316;18.092;2024-01-07T04:04:06;-10.10;99.90
7427;DHT22;3755;59.316;18.092;2024-01-07T04:06:33;-10.20;99.90
7427;DHT22;3755;59.316;18.092;2024-01-07T04:09:02;-9.60;99.90
7427;DHT22;3755;59.316;18.092;2024-01-07T04:11:30;-10.20;99.90
7427;DHT22;3755;59.316;18.092;2024-01-07T04:13:57;-10.20;99.90
7427;DHT22;3755;59.316;18.092;2024-01-07T04:16:25;-10.20;99.90
7427;DHT22;3755;59.316;18.092;2024-01-07T04:18:52;-10.10;99.90
7427;DHT22;3755;59.316;18.092;2024-01-07T04:21:19;-10.00;99.90
7427;DHT22;3755;59.316;18.092;2024-01-07T04:23:48;-10.30;99.90
7427;DHT22;3755;59.316;18.092;2024-01-07T04:26:16;-10.20;99.90
7427;DHT22;3755;59.316;18.092;2024-01-07T04:28:45;-10.30;99.90
7427;DHT22;3755;59.316;18.092;2024-01-07T04:31:12;-10.40;99.90
7427;DHT22;3755;59.316;18.092;2024-01-07T04:33:42;-10.30;99.90
7427;DHT22;3755;59.316;18.092;2024-01-07T04:36:10;-10.30;99.90
7427;DHT22;3755;59.316;18.092;2024-01-07T04:38:37;-10.40;99.90
7427;DHT22;3755;59.316;18.092;2024-01-07T04:41:06;-10.60;99.90
7427;DHT22;3755;59.316;18.092;2024-01-07T04:43:36;-10.50;99.90
7427;DHT22;3755;59.316;18.092;2024-01-07T04:46:04;-10.50;99.90
7427;DHT22;3755;59.316;18.092;2024-01-07T04:48:32;-10.50;99.90
7427;DHT22;3755;59.316;18.092;2024-01-07T04:51:01;-10.50;99.90
7427;DHT22;3755;59.316;18.092;2024-01-07T04:53:29;-10.50;99.90
7427;DHT22;3755;59.316;18.092;2024-01-07T04:55:57;-10.50;99.90
7427;DHT22;3755;59.316;18.092;2024-01-07T04:58:24;-10.50;99.90
7427;DHT22;3755;59.316;18.092;2024-01-07T05:00:53;-10.50;99.90
7427;DHT22;3755;59.316;18.092;2024-01-07T05:03:21;-10.60;99.90
7427;DHT22;3755;59.316;18.092;2024-01-07T05:05:48;-10.50;99.90
7427;DHT22;3755;59.316;18.092;2024-01-07T05:08:19;-10.60;99.90
7427;DHT22;3755;59.316;18.092;2024-01-07T05:10:56;-10.00;99.90
7427;DHT22;3755;59.316;18.092;2024-01-07T05:13:26;-10.50;99.90
7427;DHT22;3755;59.316;18.092;2024-01-07T05:15:55;-10.30;99.90
7427;DHT22;3755;59.316;18.092;2024-01-07T05:18:23;-10.30;99.90
7427;DHT22;3755;59.316;18.092;2024-01-07T05:20:51;-10.20;99.90
7427;DHT22;3755;59.316;18.092;2024-01-07T05:23:18;-10.20;99.90
7427;DHT22;3755;59.316;18.092;2024-01-07T05:25:46;-10.30;99.90
7427;DHT22;3755;59.316;18.092;2024-01-07T05:28:14;-10.30;99.90
7427;DHT22;3755;59.316;18.092;2024-01-07T05:30:45;-10.30;99.90
7427;DHT22;3755;59.316;18.092;2024-01-07T05:33:13;-10.20;99.90
7427;DHT22;3755;59.316;18.092;2024-01-07T05:35:40;-9.50;99.90
7427;DHT22;3755;59.316;18.092;2024-01-07T05:38:08;-10.30;99.90
7427;DHT22;3755;59.316;18.092;2024-01-07T05:40:49;-10.30;99.90
7427;DHT22;3755;59.316;18.092;2024-01-07T05:43:16;-10.50;99.90
7427;DHT22;3755;59.316;18.092;2024-01-07T05:45:43;-9.90;99.90
7427;DHT22;3755;59.316;18.092;2024-01-07T05:48:13;-10.30;99.90
7427;DHT22;3755;59.316;18.092;2024-01-07T05:50:41;-10.40;99.90
7427;DHT22;3755;59.316;18.092;2024-01-07T05:53:08;-10.40;99.90
7427;DHT22;3755;59.316;18.092;2024-01-07T05:55:35;-10.40;99.90
7427;DHT22;3755;59.316;18.092;2024-01-07T05:58:03;-10.40;99.90
7427;DHT22;3755;59.316;18.092;2024-01-07T06:00:32;-10.30;99.90
7427;DHT22;3755;59.316;18.092;2024-01-07T06:03:02;-10.20;99.90
7427;DHT22;3755;59.316;18.092;2024-01-07T06:15:46;-10.30;99.90
7427;DHT22;3755;59.316;18.092;2024-01-07T06:18:15;-8.90;99.90
7427;DHT22;3755;59.316;18.092;2024-01-07T06:20:57;-10.00;99.90
7427;DHT22;3755;59.316;18.092;2024-01-07T06:23:38;-9.90;99.90
7427;DHT22;3755;59.316;18.092;2024-01-07T06:26:19;-9.80;99.90
7427;DHT22;3755;59.316;18.092;2024-01-07T06:29:01;-9.20;99.90
7427;DHT22;3755;59.316;18.092;2024-01-07T06:32:02;-9.80;99.90
7427;DHT22;3755;59.316;18.092;2024-01-07T06:34:43;-9.90;99.90
7427;DHT22;3755;59.316;18.092;2024-01-07T06:37:25;-10.00;99.90
7427;DHT22;3755;59.316;18.092;2024-01-07T06:40:01;-10.00;99.90
7427;DHT22;3755;59.316;18.092;2024-01-07T06:42:51;-10.00;99.90
7427;DHT22;3755;59.316;18.092;2024-01-07T07:04:21;-10.10;99.90
7427;DHT22;3755;59.316;18.092;2024-01-07T07:06:50;-10.00;99.90
7427;DHT22;3755;59.316;18.092;2024-01-07T07:09:17;-9.90;99.90
7427;DHT22;3755;59.316;18.092;2024-01-07T07:11:46;-9.90;99.90
7427;DHT22;3755;59.316;18.092;2024-01-07T07:14:42;-9.90;99.90
7427;DHT22;3755;59.316;18.092;2024-01-07T07:17:31;-9.90;99.90
7427;DHT22;3755;59.316;18.092;2024-01-07T11:02:01;-9.60;99.90
7427;DHT22;3755;59.316;18.092;2024-01-07T11:08:04;-9.60;99.90
7427;DHT22;3755;59.316;18.092;2024-01-07T11:10:57;-9.60;99.90
7427;DHT22;3755;59.316;18.092;2024-01-07T12:30:25;-8.40;99.90
7427;DHT22;3755;59.316;18.092;2024-01-07T12:33:09;-8.30;99.90
7427;DHT22;3755;59.316;18.092;2024-01-07T12:35:51;-7.00;99.90
7427;DHT22;3755;59.316;18.092;2024-01-07T12:38:37;-7.90;99.90
7427;DHT22;3755;59.316;18.092;2024-01-07T12:41:29;-8.10;99.90
7427;DHT22;3755;59.316;18.092;2024-01-07T12:44:15;-8.10;99.90
7427;DHT22;3755;59.316;18.092;2024-01-07T12:50:25;-7.30;99.90
7427;DHT22;3755;59.316;18.092;2024-01-07T12:53:28;-8.10;99.90
7427;DHT22;3755;59.316;18.092;2024-01-07T12:56:13;-8.10;99.90
7427;DHT22;3755;59.316;18.092;2024-01-07T12:59:00;-8.20;99.90
7427;DHT22;3755;59.316;18.092;2024-01-07T13:01:55;-8.30;99.90
7427;DHT22;3755;59.316;18.092;2024-01-07T13:05:01;-7.70;99.90
7427;DHT22;3755;59.316;18.092;2024-01-07T13:53:38;-8.50;99.90
7427;DHT22;3755;59.316;18.092;2024-01-07T13:56:20;-8.50;99.90
7427;DHT22;3755;59.316;18.092;2024-01-07T13:59:01;-8.50;99.90
7427;DHT22;3755;59.316;18.092;2024-01-07T14:01:47;-8.40;99.90
7427;DHT22;3755;59.316;18.092;2024-01-07T14:04:31;-8.30;99.90
7427;DHT22;3755;59.316;18.092;2024-01-07T14:06:59;-7.70;99.90
7427;DHT22;3755;59.316;18.092;2024-01-07T14:09:30;-8.20;99.90
7427;DHT22;3755;59.316;18.092;2024-01-07T14:12:12;-8.30;99.90
7427;DHT22;3755;59.316;18.092;2024-01-07T14:14:54;-8.30;99.90
7427;DHT22;3755;59.316;18.092;2024-01-07T14:17:58;-8.20;99.90
7427;DHT22;3755;59.316;18.092;2024-01-07T14:24:12;-7.30;99.90
7427;DHT22;3755;59.316;18.092;2024-01-07T14:58:36;-7.90;99.90
7427;DHT22;3755;59.316;18.092;2024-01-07T15:01:21;-8.00;99.90
7427;DHT22;3755;59.316;18.092;2024-01-07T15:07:00;-8.10;99.90
7427;DHT22;3755;59.316;18.092;2024-01-07T15:09:31;-8.10;99.90
7427;DHT22;3755;59.316;18.092;2024-01-07T15:11:59;-7.80;99.90
7427;DHT22;3755;59.316;18.092;2024-01-07T15:14:31;-8.00;99.90
7427;DHT22;3755;59.316;18.092;2024-01-07T15:16:58;-7.70;99.90
7427;DHT22;3755;59.316;18.092;2024-01-07T15:19:26;-8.10;99.90
7427;DHT22;3755;59.316;18.092;2024-01-07T15:21:55;-8.20;99.90
7427;DHT22;3755;59.316;18.092;2024-01-07T15:24:23;-8.20;99.90
7427;DHT22;3755;59.316;18.092;2024-01-07T15:27:04;-8.20;99.90
7427;DHT22;3755;59.316;18.092;2024-01-07T15:29:34;-8.10;99.90
7427;DHT22;3755;59.316;18.092;2024-01-07T15:32:03;-8.10;99.90
7427;DHT22;3755;59.316;18.092;2024-01-07T15:34:31;-8.20;99.90
7427;DHT22;3755;59.316;18.092;2024-01-07T15:36:59;-8.10;99.90
7427;DHT22;3755;59.316;18.092;2024-01-07T15:39:26;-8.10;99.90
7427;DHT22;3755;59.316;18.092;2024-01-07T15:41:54;-8.10;99.90
7427;DHT22;3755;59.316;18.092;2024-01-07T15:44:23;-8.10;99.90
7427;DHT22;3755;59.316;18.092;2024-01-07T15:46:56;-7.70;99.90
7427;DHT22;3755;59.316;18.092;2024-01-07T15:49:23;-7.30;99.90
7427;DHT22;3755;59.316;18.092;2024-01-07T15:51:51;-8.10;99.90
7427;DHT22;3755;59.316;18.092;2024-01-07T15:54:18;-8.10;99.90
7427;DHT22;3755;59.316;18.092;2024-01-07T15:56:46;-8.10;99.90
7427;DHT22;3755;59.316;18.092;2024-01-07T15:59:13;-8.10;99.90
7427;DHT22;3755;59.316;18.092;2024-01-07T16:01:47;-8.10;99.90
7427;DHT22;3755;59.316;18.092;2024-01-07T16:04:35;-8.00;99.90
7427;DHT22;3755;59.316;18.092;2024-01-07T16:07:16;-7.00;99.90
7427;DHT22;3755;59.316;18.092;2024-01-07T16:09:43;-7.10;99.90
7427;DHT22;3755;59.316;18.092;2024-01-07T16:12:11;-7.90;99.90
7427;DHT22;3755;59.316;18.092;2024-01-07T16:14:39;-7.90;99.90
7427;DHT22;3755;59.316;18.092;2024-01-07T16:17:09;-7.90;99.90
7427;DHT22;3755;59.316;18.092;2024-01-07T16:19:41;-7.90;99.90
7427;DHT22;3755;59.316;18.092;2024-01-07T16:22:21;-7.90;99.90
7427;DHT22;3755;59.316;18.092;2024-01-07T16:24:50;-7.70;99.90
7427;DHT22;3755;59.316;18.092;2024-01-07T16:27:31;-7.80;99.90
7427;DHT22;3755;59.316;18.092;2024-01-07T16:29:58;-7.80;99.90
7427;DHT22;3755;59.316;18.092;2024-01-07T16:32:26;-7.80;99.90
7427;DHT22;3755;59.316;18.092;2024-01-07T16:34:56;-7.80;99.90
7427;DHT22;3755;59.316;18.092;2024-01-07T16:37:24;-7.80;99.90
7427;DHT22;3755;59.316;18.092;2024-01-07T16:40:03;-7.80;99.90
7427;DHT22;3755;59.316;18.092;2024-01-07T16:42:32;-7.90;99.90
7427;DHT22;3755;59.316;18.092;2024-01-07T16:45:13;-7.90;99.90
7427;DHT22;3755;59.316;18.092;2024-01-07T16:47:42;-7.40;99.90
7427;DHT22;3755;59.316;18.092;2024-01-07T16:50:43;-8.00;99.90
7427;DHT22;3755;59.316;18.092;2024-01-07T16:53:25;-7.80;99.90
7427;DHT22;3755;59.316;18.092;2024-01-07T16:55:55;-8.10;99.90
7427;DHT22;3755;59.316;18.092;2024-01-07T16:58:22;-8.10;99.90
7427;DHT22;3755;59.316;18.092;2024-01-07T17:01:04;-7.90;99.90
7427;DHT22;3755;59.316;18.092;2024-01-07T17:03:51;-8.30;99.90
7427;DHT22;3755;59.316;18.092;2024-01-07T17:06:25;-7.70;99.90
7427;DHT22;3755;59.316;18.092;2024-01-07T17:09:07;-8.40;99.90
7427;DHT22;3755;59.316;18.092;2024-01-07T17:11:35;-8.40;99.90
7427;DHT22;3755;59.316;18.092;2024-01-07T17:14:04;-7.70;99.90
7427;DHT22;3755;59.316;18.092;2024-01-07T17:16:34;-8.10;99.90
7427;DHT22;3755;59.316;18.092;2024-01-07T17:19:04;-8.50;99.90
7427;DHT22;3755;59.316;18.092;2024-01-07T17:21:36;-8.60;99.90
7427;DHT22;3755;59.316;18.092;2024-01-07T17:24:17;-8.60;99.90
7427;DHT22;3755;59.316;18.092;2024-01-07T17:26:44;-8.60;99.90
7427;DHT22;3755;59.316;18.092;2024-01-07T17:32:33;-8.70;99.90
7427;DHT22;3755;59.316;18.092;2024-01-07T17:35:19;-8.80;99.90
7427;DHT22;3755;59.316;18.092;2024-01-07T17:37:51;-8.80;99.90
7427;DHT22;3755;59.316;18.092;2024-01-07T17:40:30;-8.90;99.90
7427;DHT22;3755;59.316;18.092;2024-01-07T17:43:03;-8.50;99.90
7427;DHT22;3755;59.316;18.092;2024-01-07T17:45:33;-8.90;99.90
7427;DHT22;3755;59.316;18.092;2024-01-07T17:48:04;-9.00;99.90
7427;DHT22;3755;59.316;18.092;2024-01-07T17:50:39;-9.00;99.90
7427;DHT22;3755;59.316;18.092;2024-01-07T17:53:22;-9.00;99.90
7427;DHT22;3755;59.316;18.092;2024-01-07T17:56:05;-9.00;99.90
7427;DHT22;3755;59.316;18.092;2024-01-07T17:58:40;-9.00;99.90
7427;DHT22;3755;59.316;18.092;2024-01-07T18:01:16;-9.00;99.90
7427;DHT22;3755;59.316;18.092;2024-01-07T18:03:45;-8.20;99.90
7427;DHT22;3755;59.316;18.092;2024-01-07T18:06:17;-9.00;99.90
7427;DHT22;3755;59.316;18.092;2024-01-07T18:08:57;-9.00;99.90
7427;DHT22;3755;59.316;18.092;2024-01-07T18:11:38;-8.20;99.90
7427;DHT22;3755;59.316;18.092;2024-01-07T18:14:06;-9.10;99.90
7427;DHT22;3755;59.316;18.092;2024-01-07T18:16:40;-9.20;99.90
7427;DHT22;3755;59.316;18.092;2024-01-07T18:19:21;-9.10;99.90
7427;DHT22;3755;59.316;18.092;2024-01-07T18:22:04;-9.10;99.90
7427;DHT22;3755;59.316;18.092;2024-01-07T18:24:35;-9.10;99.90
7427;DHT22;3755;59.316;18.092;2024-01-07T18:27:07;-9.20;99.90
7427;DHT22;3755;59.316;18.092;2024-01-07T18:29:40;-8.40;99.90
7427;DHT22;3755;59.316;18.092;2024-01-07T18:32:18;-9.40;99.90
7427;DHT22;3755;59.316;18.092;2024-01-07T18:34:59;-9.40;99.90
7427;DHT22;3755;59.316;18.092;2024-01-07T18:37:27;-9.50;99.90
7427;DHT22;3755;59.316;18.092;2024-01-07T18:40:17;-9.00;99.90
7427;DHT22;3755;59.316;18.092;2024-01-07T18:43:16;-9.60;99.90
7427;DHT22;3755;59.316;18.092;2024-01-07T18:46:13;-8.60;99.90
7427;DHT22;3755;59.316;18.092;2024-01-07T18:49:16;-9.70;99.90
7427;DHT22;3755;59.316;18.092;2024-01-07T18:52:18;-9.60;99.90
7427;DHT22;3755;59.316;18.092;2024-01-07T18:54:59;-9.60;99.90
7427;DHT22;3755;59.316;18.092;2024-01-07T18:57:48;-8.80;99.90
7427;DHT22;3755;59.316;18.092;2024-01-07T19:04:21;-9.80;99.90
7427;DHT22;3755;59.316;18.092;2024-01-07T20:47:54;-9.20;99.90
7427;DHT22;3755;59.316;18.092;2024-01-07T20:50:46;-9.90;99.90
7427;DHT22;3755;59.316;18.092;2024-01-07T20:53:44;-10.10;99.90
7427;DHT22;3755;59.316;18.092;2024-01-07T21:32:46;-9.50;99.90
7427;DHT22;3755;59.316;18.092;2024-01-07T22:12:11;-9.50;99.90
7427;DHT22;3755;59.316;18.092;2024-01-07T23:01:51;-9.20;99.90
7427;DHT22;3755;59.316;18.092;2024-01-07T23:04:30;-9.80;99.90
7427;DHT22;3755;59.316;18.092;2024-01-07T23:07:01;-9.40;99.90
7427;DHT22;3755;59.316;18.092;2024-01-07T23:09:31;-8.90;99.90
7427;DHT22;3755;59.316;18.092;2024-01-07T23:12:07;-9.60;99.90
7427;DHT22;3755;59.316;18.092;2024-01-07T23:14:35;-9.90;99.90
7427;DHT22;3755;59.316;18.092;2024-01-07T23:17:13;-9.60;99.90
7427;DHT22;3755;59.316;18.092;2024-01-07T23:19:54;-9.30;99.90
7427;DHT22;3755;59.316;18.092;2024-01-07T23:22:21;-9.40;99.90
7427;DHT22;3755;59.316;18.092;2024-01-07T23:24:49;-10.50;99.90
7427;DHT22;3755;59.316;18.092;2024-01-07T23:27:19;-10.00;99.90
7427;DHT22;3755;59.316;18.092;2024-01-07T23:29:47;-9.90;99.90
7427;DHT22;3755;59.316;18.092;2024-01-07T23:32:15;-9.90;99.90
7427;DHT22;3755;59.316;18.092;2024-01-07T23:34:46;-10.00;99.90
7427;DHT22;3755;59.316;18.092;2024-01-07T23:37:13;-10.00;99.90
7427;DHT22;3755;59.316;18.092;2024-01-07T23:39:40;-10.00;99.90
7427;DHT22;3755;59.316;18.092;2024-01-07T23:42:07;-9.90;99.90
7427;DHT22;3755;59.316;18.092;2024-01-07T23:44:36;-9.90;99.90
7427;DHT22;3755;59.316;18.092;2024-01-07T23:47:04;-9.90;99.90
7427;DHT22;3755;59.316;18.092;2024-01-07T23:49:33;-9.90;99.90
7427;DHT22;3755;59.316;18.092;2024-01-07T23:52:01;-9.90;99.90
7427;DHT22;3755;59.316;18.092;2024-01-07T23:54:29;-9.90;99.90
7427;DHT22;3755;59.316;18.092;2024-01-07T23:56:55;-9.90;99.90
7427;DHT22;3755;59.316;18.092;2024-01-07T23:59:22;-9.90;99.90
